sensor_id;sensor_type;location;lat;lon;timestamp;temperature;humidity
52387;DHT22;38317;53.084;6.960;2022-08-03T00:01:39;19.50;99.90
52387;DHT22;38317;53.084;6.960;2022-08-03T00:04:06;19.50;99.90
52387;DHT22;38317;53.084;6.960;2022-08-03T00:06:32;19.50;99.90
52387;DHT22;38317;53.084;6.960;2022-08-03T00:08:58;19.40;99.90
52387;DHT22;38317;53.084;6.960;2022-08-03T00:11:24;19.40;99.90
52387;DHT22;38317;53.084;6.960;2022-08-03T00:13:51;19.40;99.90
52387;DHT22;38317;53.084;6.960;2022-08-03T00:16:17;19.40;99.90
52387;DHT22;38317;53.084;6.960;2022-08-03T00:18:43;19.40;99.90
52387;DHT22;38317;53.084;6.960;2022-08-03T00:21:09;19.40;99.90
52387;DHT22;38317;53.084;6.960;2022-08-03T00:23:35;19.40;99.90
52387;DHT22;38317;53.084;6.960;2022-08-03T00:26:01;19.40;99.90
52387;DHT22;38317;53.084;6.960;2022-08-03T00:28:28;19.30;99.90
52387;DHT22;38317;53.084;6.960;2022-08-03T00:30:53;19.40;99.90
52387;DHT22;38317;53.084;6.960;2022-08-03T00:33:22;19.40;99.90
52387;DHT22;38317;53.084;6.960;2022-08-03T00:35:48;19.30;99.90
52387;DHT22;38317;53.084;6.960;2022-08-03T00:38:13;19.30;99.90
52387;DHT22;38317;53.084;6.960;2022-08-03T00:40:39;19.30;99.90
52387;DHT22;38317;53.084;6.960;2022-08-03T00:43:06;19.30;99.90
52387;DHT22;38317;53.084;6.960;2022-08-03T00:45:35;19.20;99.90
52387;DHT22;38317;53.084;6.960;2022-08-03T00:48:03;19.20;99.90
52387;DHT22;38317;53.084;6.960;2022-08-03T00:50:31;19.30;99.90
52387;DHT22;38317;53.084;6.960;2022-08-03T00:53:00;19.20;99.90
52387;DHT22;38317;53.084;6.960;2022-08-03T00:55:26;19.20;99.90
52387;DHT22;38317;53.084;6.960;2022-08-03T00:57:52;19.20;99.90
52387;DHT22;38317;53.084;6.960;2022-08-03T01:00:20;19.20;99.90
52387;DHT22;38317;53.084;6.960;2022-08-03T01:02:47;19.20;99.90
52387;DHT22;38317;53.084;6.960;2022-08-03T01:05:12;19.20;99.90
52387;DHT22;38317;53.084;6.960;2022-08-03T01:10:47;19.20;99.90
52387;DHT22;38317;53.084;6.960;2022-08-03T01:16:28;19.20;99.90
52387;DHT22;38317;53.084;6.960;2022-08-03T01:22:04;19.20;99.90
52387;DHT22;38317;53.084;6.960;2022-08-03T01:24:55;19.20;99.90
52387;DHT22;38317;53.084;6.960;2022-08-03T01:30:34;19.20;99.90
52387;DHT22;38317;53.084;6.960;2022-08-03T01:33:04;19.10;99.90
52387;DHT22;38317;53.084;6.960;2022-08-03T01:38:28;19.10;99.90
52387;DHT22;38317;53.084;6.960;2022-08-03T01:40:56;19.10;99.90
52387;DHT22;38317;53.084;6.960;2022-08-03T01:43:26;19.00;99.90
52387;DHT22;38317;53.084;6.960;2022-08-03T01:45:54;19.00;99.90
52387;DHT22;38317;53.084;6.960;2022-08-03T01:48:20;19.00;99.90
52387;DHT22;38317;53.084;6.960;2022-08-03T01:50:47;19.00;99.90
52387;DHT22;38317;53.084;6.960;2022-08-03T01:53:14;19.00;99.90
52387;DHT22;38317;53.084;6.960;2022-08-03T01:55:43;19.00;99.90
52387;DHT22;38317;53.084;6.960;2022-08-03T01:58:13;19.00;99.90
52387;DHT22;38317;53.084;6.960;2022-08-03T02:00:40;18.90;99.90
52387;DHT22;38317;53.084;6.960;2022-08-03T02:03:07;18.90;99.90
52387;DHT22;38317;53.084;6.960;2022-08-03T02:05:35;18.90;99.90
52387;DHT22;38317;53.084;6.960;2022-08-03T02:08:04;18.90;99.90
52387;DHT22;38317;53.084;6.960;2022-08-03T02:10:31;18.80;99.90
52387;DHT22;38317;53.084;6.960;2022-08-03T02:12:59;18.80;99.90
52387;DHT22;38317;53.084;6.960;2022-08-03T02:15:26;18.80;99.90
52387;DHT22;38317;53.084;6.960;2022-08-03T02:17:53;18.70;99.90
52387;DHT22;38317;53.084;6.960;2022-08-03T02:20:20;18.70;99.90
52387;DHT22;38317;53.084;6.960;2022-08-03T02:22:46;18.70;99.90
52387;DHT22;38317;53.084;6.960;2022-08-03T02:25:13;18.70;99.90
52387;DHT22;38317;53.084;6.960;2022-08-03T02:27:48;18.60;99.90
52387;DHT22;38317;53.084;6.960;2022-08-03T02:30:15;18.60;99.90
52387;DHT22;38317;53.084;6.960;2022-08-03T02:32:45;18.60;99.90
52387;DHT22;38317;53.084;6.960;2022-08-03T02:35:14;18.50;99.90
52387;DHT22;38317;53.084;6.960;2022-08-03T02:37:45;18.50;99.90
52387;DHT22;38317;53.084;6.960;2022-08-03T02:40:14;18.40;99.90
52387;DHT22;38317;53.084;6.960;2022-08-03T02:42:42;18.40;99.90
52387;DHT22;38317;53.084;6.960;2022-08-03T02:45:10;18.40;99.90
52387;DHT22;38317;53.084;6.960;2022-08-03T02:47:39;18.40;99.90
52387;DHT22;38317;53.084;6.960;2022-08-03T02:50:08;18.40;99.90
52387;DHT22;38317;53.084;6.960;2022-08-03T02:52:35;18.40;99.90
52387;DHT22;38317;53.084;6.960;2022-08-03T02:55:02;18.40;99.90
52387;DHT22;38317;53.084;6.960;2022-08-03T02:57:30;18.30;99.90
52387;DHT22;38317;53.084;6.960;2022-08-03T02:59:58;18.30;99.90
52387;DHT22;38317;53.084;6.960;2022-08-03T03:02:25;18.30;99.90
52387;DHT22;38317;53.084;6.960;2022-08-03T03:04:52;18.30;99.90
52387;DHT22;38317;53.084;6.960;2022-08-03T03:07:20;18.30;99.90
52387;DHT22;38317;53.084;6.960;2022-08-03T03:09:46;18.30;99.90
52387;DHT22;38317;53.084;6.960;2022-08-03T03:12:12;18.30;99.90
52387;DHT22;38317;53.084;6.960;2022-08-03T03:14:39;18.30;99.90
52387;DHT22;38317;53.084;6.960;2022-08-03T03:17:09;18.20;99.90
52387;DHT22;38317;53.084;6.960;2022-08-03T03:19:38;18.30;99.90
52387;DHT22;38317;53.084;6.960;2022-08-03T03:22:04;18.20;99.90
52387;DHT22;38317;53.084;6.960;2022-08-03T03:24:32;18.20;99.90
52387;DHT22;38317;53.084;6.960;2022-08-03T03:26:59;18.20;99.90
52387;DHT22;38317;53.084;6.960;2022-08-03T03:29:25;18.10;99.90
52387;DHT22;38317;53.084;6.960;2022-08-03T03:31:52;18.10;99.90
52387;DHT22;38317;53.084;6.960;2022-08-03T03:34:18;18.10;99.90
52387;DHT22;38317;53.084;6.960;2022-08-03T03:36:44;18.10;99.90
52387;DHT22;38317;53.084;6.960;2022-08-03T03:39:10;18.00;99.90
52387;DHT22;38317;53.084;6.960;2022-08-03T03:41:36;18.00;99.90
52387;DHT22;38317;53.084;6.960;2022-08-03T03:44:02;18.00;99.90
52387;DHT22;38317;53.084;6.960;2022-08-03T03:46:28;18.00;99.90
52387;DHT22;38317;53.084;6.960;2022-08-03T03:48:54;18.00;99.90
52387;DHT22;38317;53.084;6.960;2022-08-03T03:51:20;18.00;99.90
52387;DHT22;38317;53.084;6.960;2022-08-03T03:54:00;17.90;99.90
52387;DHT22;38317;53.084;6.960;2022-08-03T03:56:27;17.90;99.90
52387;DHT22;38317;53.084;6.960;2022-08-03T03:58:53;17.90;99.90
52387;DHT22;38317;53.084;6.960;2022-08-03T04:01:19;17.90;99.90
52387;DHT22;38317;53.084;6.960;2022-08-03T04:03:45;17.90;99.90
52387;DHT22;38317;53.084;6.960;2022-08-03T04:06:12;17.80;99.90
52387;DHT22;38317;53.084;6.960;2022-08-03T04:08:57;17.80;99.90
52387;DHT22;38317;53.084;6.960;2022-08-03T04:11:49;17.80;99.90
52387;DHT22;38317;53.084;6.960;2022-08-03T04:14:34;17.80;99.90
52387;DHT22;38317;53.084;6.960;2022-08-03T04:17:06;17.80;99.90
52387;DHT22;38317;53.084;6.960;2022-08-03T04:19:35;17.80;99.90
52387;DHT22;38317;53.084;6.960;2022-08-03T04:22:07;17.80;99.90
52387;DHT22;38317;53.084;6.960;2022-08-03T04:24:41;17.80;99.90
52387;DHT22;38317;53.084;6.960;2022-08-03T04:27:12;17.80;99.90
52387;DHT22;38317;53.084;6.960;2022-08-03T04:29:40;17.80;99.90
52387;DHT22;38317;53.084;6.960;2022-08-03T04:32:08;17.80;99.90
52387;DHT22;38317;53.084;6.960;2022-08-03T04:34:35;17.70;99.90
52387;DHT22;38317;53.084;6.960;2022-08-03T04:37:06;17.80;99.90
52387;DHT22;38317;53.084;6.960;2022-08-03T04:39:35;17.80;99.90
52387;DHT22;38317;53.084;6.960;2022-08-03T04:42:05;17.80;99.90
52387;DHT22;38317;53.084;6.960;2022-08-03T04:44:40;17.80;99.90
52387;DHT22;38317;53.084;6.960;2022-08-03T04:47:06;17.80;99.90
52387;DHT22;38317;53.084;6.960;2022-08-03T04:49:32;17.90;99.90
52387;DHT22;38317;53.084;6.960;2022-08-03T04:52:00;17.90;99.90
52387;DHT22;38317;53.084;6.960;2022-08-03T04:54:26;17.90;99.90
52387;DHT22;38317;53.084;6.960;2022-08-03T04:56:51;17.90;99.90
52387;DHT22;38317;53.084;6.960;2022-08-03T04:59:17;17.90;99.90
52387;DHT22;38317;53.084;6.960;2022-08-03T05:01:43;18.00;99.90
52387;DHT22;38317;53.084;6.960;2022-08-03T05:04:09;18.00;99.90
52387;DHT22;38317;53.084;6.960;2022-08-03T05:06:35;18.00;99.90
52387;DHT22;38317;53.084;6.960;2022-08-03T05:09:01;18.00;99.90
52387;DHT22;38317;53.084;6.960;2022-08-03T05:11:27;18.10;99.90
52387;DHT22;38317;53.084;6.960;2022-08-03T05:13:53;18.10;99.90
52387;DHT22;38317;53.084;6.960;2022-08-03T05:16:19;18.10;99.90
52387;DHT22;38317;53.084;6.960;2022-08-03T05:18:44;18.10;99.90
52387;DHT22;38317;53.084;6.960;2022-08-03T05:21:11;18.20;99.90
52387;DHT22;38317;53.084;6.960;2022-08-03T05:23:41;18.20;99.90
52387;DHT22;38317;53.084;6.960;2022-08-03T05:26:07;18.20;99.90
52387;DHT22;38317;53.084;6.960;2022-08-03T05:28:33;18.30;99.90
52387;DHT22;38317;53.084;6.960;2022-08-03T05:30:58;18.40;99.90
52387;DHT22;38317;53.084;6.960;2022-08-03T05:33:24;18.40;99.90
52387;DHT22;38317;53.084;6.960;2022-08-03T05:35:50;18.40;99.90
52387;DHT22;38317;53.084;6.960;2022-08-03T05:38:16;18.40;99.90
52387;DHT22;38317;53.084;6.960;2022-08-03T05:40:41;18.40;99.90
52387;DHT22;38317;53.084;6.960;2022-08-03T05:43:07;18.50;99.90
52387;DHT22;38317;53.084;6.960;2022-08-03T05:45:33;18.50;99.90
52387;DHT22;38317;53.084;6.960;2022-08-03T05:47:59;18.60;99.90
52387;DHT22;38317;53.084;6.960;2022-08-03T05:50:24;18.60;99.90
52387;DHT22;38317;53.084;6.960;2022-08-03T05:52:53;18.70;99.90
52387;DHT22;38317;53.084;6.960;2022-08-03T05:55:24;18.70;99.90
52387;DHT22;38317;53.084;6.960;2022-08-03T05:57:50;18.80;99.90
52387;DHT22;38317;53.084;6.960;2022-08-03T06:00:16;18.80;99.90
52387;DHT22;38317;53.084;6.960;2022-08-03T06:02:42;18.80;99.90
52387;DHT22;38317;53.084;6.960;2022-08-03T06:05:08;18.90;99.90
52387;DHT22;38317;53.084;6.960;2022-08-03T06:07:35;18.90;99.90
52387;DHT22;38317;53.084;6.960;2022-08-03T06:10:01;18.90;99.90
52387;DHT22;38317;53.084;6.960;2022-08-03T06:12:28;19.00;99.90
52387;DHT22;38317;53.084;6.960;2022-08-03T06:14:54;19.00;99.90
52387;DHT22;38317;53.084;6.960;2022-08-03T06:17:20;19.10;99.90
52387;DHT22;38317;53.084;6.960;2022-08-03T06:19:45;19.10;99.90
52387;DHT22;38317;53.084;6.960;2022-08-03T06:22:11;19.20;99.90
52387;DHT22;38317;53.084;6.960;2022-08-03T06:24:37;19.20;99.90
52387;DHT22;38317;53.084;6.960;2022-08-03T06:27:03;19.30;99.90
52387;DHT22;38317;53.084;6.960;2022-08-03T06:29:29;19.30;99.90
52387;DHT22;38317;53.084;6.960;2022-08-03T06:31:55;19.30;99.90
52387;DHT22;38317;53.084;6.960;2022-08-03T06:34:21;19.40;99.90
52387;DHT22;38317;53.084;6.960;2022-08-03T06:36:47;19.40;99.90
52387;DHT22;38317;53.084;6.960;2022-08-03T06:39:15;19.50;99.90
52387;DHT22;38317;53.084;6.960;2022-08-03T06:41:41;19.60;99.90
52387;DHT22;38317;53.084;6.960;2022-08-03T06:44:07;19.60;99.90
52387;DHT22;38317;53.084;6.960;2022-08-03T06:46:33;19.60;99.90
52387;DHT22;38317;53.084;6.960;2022-08-03T06:48:59;19.60;99.90
52387;DHT22;38317;53.084;6.960;2022-08-03T06:51:25;19.70;99.90
52387;DHT22;38317;53.084;6.960;2022-08-03T06:53:51;19.70;99.90
52387;DHT22;38317;53.084;6.960;2022-08-03T06:56:16;19.80;99.90
52387;DHT22;38317;53.084;6.960;2022-08-03T06:58:42;19.80;99.90
52387;DHT22;38317;53.084;6.960;2022-08-03T07:01:08;19.80;99.90
52387;DHT22;38317;53.084;6.960;2022-08-03T07:03:38;19.90;99.90
52387;DHT22;38317;53.084;6.960;2022-08-03T07:06:12;20.00;99.90
52387;DHT22;38317;53.084;6.960;2022-08-03T07:08:38;20.10;99.90
52387;DHT22;38317;53.084;6.960;2022-08-03T07:11:03;20.10;99.90
52387;DHT22;38317;53.084;6.960;2022-08-03T07:13:29;20.20;99.90
52387;DHT22;38317;53.084;6.960;2022-08-03T07:15:55;20.20;99.90
52387;DHT22;38317;53.084;6.960;2022-08-03T07:18:20;20.30;99.90
52387;DHT22;38317;53.084;6.960;2022-08-03T07:20:46;20.30;99.90
52387;DHT22;38317;53.084;6.960;2022-08-03T07:23:12;20.50;99.90
52387;DHT22;38317;53.084;6.960;2022-08-03T07:25:38;20.60;99.90
52387;DHT22;38317;53.084;6.960;2022-08-03T07:28:04;20.80;99.90
52387;DHT22;38317;53.084;6.960;2022-08-03T07:30:30;20.80;99.90
52387;DHT22;38317;53.084;6.960;2022-08-03T07:32:56;20.90;99.90
52387;DHT22;38317;53.084;6.960;2022-08-03T07:35:21;21.00;99.90
52387;DHT22;38317;53.084;6.960;2022-08-03T07:37:47;21.20;99.90
52387;DHT22;38317;53.084;6.960;2022-08-03T07:40:13;21.40;99.90
52387;DHT22;38317;53.084;6.960;2022-08-03T07:42:39;21.60;99.90
52387;DHT22;38317;53.084;6.960;2022-08-03T07:45:05;21.80;99.90
52387;DHT22;38317;53.084;6.960;2022-08-03T07:47:30;22.00;99.90
52387;DHT22;38317;53.084;6.960;2022-08-03T07:49:56;22.20;99.90
52387;DHT22;38317;53.084;6.960;2022-08-03T07:52:22;22.40;99.90
52387;DHT22;38317;53.084;6.960;2022-08-03T07:55:07;22.70;99.90
52387;DHT22;38317;53.084;6.960;2022-08-03T07:57:34;22.90;99.90
52387;DHT22;38317;53.084;6.960;2022-08-03T07:59:59;23.10;99.90
52387;DHT22;38317;53.084;6.960;2022-08-03T08:02:26;23.40;99.90
52387;DHT22;38317;53.084;6.960;2022-08-03T08:04:51;23.50;99.90
52387;DHT22;38317;53.084;6.960;2022-08-03T08:07:17;23.70;99.90
52387;DHT22;38317;53.084;6.960;2022-08-03T08:09:43;23.90;99.90
52387;DHT22;38317;53.084;6.960;2022-08-03T08:12:09;24.00;99.90
52387;DHT22;38317;53.084;6.960;2022-08-03T08:14:37;24.10;99.90
52387;DHT22;38317;53.084;6.960;2022-08-03T08:17:03;24.20;99.90
52387;DHT22;38317;53.084;6.960;2022-08-03T08:19:29;24.20;99.90
52387;DHT22;38317;53.084;6.960;2022-08-03T08:21:54;24.40;99.90
52387;DHT22;38317;53.084;6.960;2022-08-03T08:24:20;24.50;99.90
52387;DHT22;38317;53.084;6.960;2022-08-03T08:26:46;24.70;99.90
52387;DHT22;38317;53.084;6.960;2022-08-03T08:29:12;24.80;99.90
52387;DHT22;38317;53.084;6.960;2022-08-03T08:31:37;25.00;99.90
52387;DHT22;38317;53.084;6.960;2022-08-03T08:34:03;25.20;99.90
52387;DHT22;38317;53.084;6.960;2022-08-03T08:36:34;25.40;99.90
52387;DHT22;38317;53.084;6.960;2022-08-03T08:39:00;25.60;99.90
52387;DHT22;38317;53.084;6.960;2022-08-03T08:41:26;25.90;99.90
52387;DHT22;38317;53.084;6.960;2022-08-03T08:43:53;25.90;99.90
52387;DHT22;38317;53.084;6.960;2022-08-03T08:46:20;26.10;99.90
52387;DHT22;38317;53.084;6.960;2022-08-03T08:48:47;26.10;99.90
52387;DHT22;38317;53.084;6.960;2022-08-03T08:51:13;26.00;99.90
52387;DHT22;38317;53.084;6.960;2022-08-03T08:53:43;26.00;99.90
52387;DHT22;38317;53.084;6.960;2022-08-03T08:56:13;26.00;99.90
52387;DHT22;38317;53.084;6.960;2022-08-03T08:58:48;26.10;99.90
52387;DHT22;38317;53.084;6.960;2022-08-03T09:01:19;26.30;99.90
52387;DHT22;38317;53.084;6.960;2022-08-03T09:03:46;26.40;99.90
52387;DHT22;38317;53.084;6.960;2022-08-03T09:06:12;26.40;99.90
52387;DHT22;38317;53.084;6.960;2022-08-03T09:08:39;26.50;99.90
52387;DHT22;38317;53.084;6.960;2022-08-03T09:11:05;26.60;99.90
52387;DHT22;38317;53.084;6.960;2022-08-03T09:13:33;26.70;99.90
52387;DHT22;38317;53.084;6.960;2022-08-03T09:16:16;26.80;99.90
52387;DHT22;38317;53.084;6.960;2022-08-03T09:18:44;27.00;99.90
52387;DHT22;38317;53.084;6.960;2022-08-03T09:21:23;27.20;99.90
52387;DHT22;38317;53.084;6.960;2022-08-03T09:23:52;27.40;99.90
52387;DHT22;38317;53.084;6.960;2022-08-03T09:26:26;27.50;99.90
52387;DHT22;38317;53.084;6.960;2022-08-03T09:29:09;27.60;99.90
52387;DHT22;38317;53.084;6.960;2022-08-03T09:31:37;27.50;99.90
52387;DHT22;38317;53.084;6.960;2022-08-03T09:34:14;27.50;99.90
52387;DHT22;38317;53.084;6.960;2022-08-03T09:36:45;27.60;99.90
52387;DHT22;38317;53.084;6.960;2022-08-03T09:39:17;27.80;99.90
52387;DHT22;38317;53.084;6.960;2022-08-03T09:41:43;27.90;99.90
52387;DHT22;38317;53.084;6.960;2022-08-03T09:44:10;28.10;99.90
52387;DHT22;38317;53.084;6.960;2022-08-03T09:46:55;28.20;99.90
52387;DHT22;38317;53.084;6.960;2022-08-03T09:49:21;28.30;99.90
52387;DHT22;38317;53.084;6.960;2022-08-03T09:51:47;28.40;99.90
52387;DHT22;38317;53.084;6.960;2022-08-03T09:54:28;28.50;99.90
52387;DHT22;38317;53.084;6.960;2022-08-03T09:56:55;28.60;99.90
52387;DHT22;38317;53.084;6.960;2022-08-03T09:59:26;28.80;99.90
52387;DHT22;38317;53.084;6.960;2022-08-03T10:01:54;28.80;99.90
52387;DHT22;38317;53.084;6.960;2022-08-03T10:04:20;28.80;99.90
52387;DHT22;38317;53.084;6.960;2022-08-03T10:09:26;28.80;99.90
52387;DHT22;38317;53.084;6.960;2022-08-03T10:11:52;29.00;99.90
52387;DHT22;38317;53.084;6.960;2022-08-03T10:14:19;29.10;99.90
52387;DHT22;38317;53.084;6.960;2022-08-03T10:16:46;29.20;99.90
52387;DHT22;38317;53.084;6.960;2022-08-03T10:19:13;29.20;99.90
52387;DHT22;38317;53.084;6.960;2022-08-03T10:21:54;29.30;99.90
52387;DHT22;38317;53.084;6.960;2022-08-03T10:24:27;29.40;99.90
52387;DHT22;38317;53.084;6.960;2022-08-03T10:27:14;29.60;99.90
52387;DHT22;38317;53.084;6.960;2022-08-03T10:29:44;29.50;99.90
52387;DHT22;38317;53.084;6.960;2022-08-03T10:32:17;29.50;99.90
52387;DHT22;38317;53.084;6.960;2022-08-03T10:34:44;29.50;99.90
52387;DHT22;38317;53.084;6.960;2022-08-03T10:37:13;29.70;99.90
52387;DHT22;38317;53.084;6.960;2022-08-03T10:39:42;29.80;99.90
52387;DHT22;38317;53.084;6.960;2022-08-03T10:42:20;29.90;99.90
52387;DHT22;38317;53.084;6.960;2022-08-03T10:44:49;30.00;99.90
52387;DHT22;38317;53.084;6.960;2022-08-03T10:47:16;30.00;99.90
52387;DHT22;38317;53.084;6.960;2022-08-03T10:49:42;30.00;99.90
52387;DHT22;38317;53.084;6.960;2022-08-03T10:52:10;30.20;99.90
52387;DHT22;38317;53.084;6.960;2022-08-03T10:57:02;30.20;99.90
52387;DHT22;38317;53.084;6.960;2022-08-03T11:02:15;30.10;99.90
52387;DHT22;38317;53.084;6.960;2022-08-03T11:04:41;30.20;99.90
52387;DHT22;38317;53.084;6.960;2022-08-03T11:09:43;30.30;99.90
52387;DHT22;38317;53.084;6.960;2022-08-03T11:14:52;30.40;98.80
52387;DHT22;38317;53.084;6.960;2022-08-03T11:17:18;30.20;99.10
52387;DHT22;38317;53.084;6.960;2022-08-03T11:19:49;30.20;98.70
52387;DHT22;38317;53.084;6.960;2022-08-03T11:22:16;30.10;98.80
52387;DHT22;38317;53.084;6.960;2022-08-03T11:30:00;30.50;97.70
52387;DHT22;38317;53.084;6.960;2022-08-03T11:35:15;30.60;96.60
52387;DHT22;38317;53.084;6.960;2022-08-03T11:48:22;30.80;97.10
52387;DHT22;38317;53.084;6.960;2022-08-03T11:50:48;30.90;96.20
52387;DHT22;38317;53.084;6.960;2022-08-03T11:53:15;30.70;95.50
52387;DHT22;38317;53.084;6.960;2022-08-03T11:55:46;30.70;95.80
52387;DHT22;38317;53.084;6.960;2022-08-03T11:58:20;30.80;96.30
52387;DHT22;38317;53.084;6.960;2022-08-03T12:00:46;31.00;95.40
52387;DHT22;38317;53.084;6.960;2022-08-03T12:03:13;31.00;93.00
52387;DHT22;38317;53.084;6.960;2022-08-03T12:05:52;31.10;94.60
52387;DHT22;38317;53.084;6.960;2022-08-03T12:10:54;31.20;93.80
52387;DHT22;38317;53.084;6.960;2022-08-03T12:13:21;31.40;93.30
52387;DHT22;38317;53.084;6.960;2022-08-03T12:15:55;31.30;92.30
52387;DHT22;38317;53.084;6.960;2022-08-03T12:18:28;31.20;92.00
52387;DHT22;38317;53.084;6.960;2022-08-03T12:21:08;31.20;92.60
52387;DHT22;38317;53.084;6.960;2022-08-03T12:23:34;31.40;92.10
52387;DHT22;38317;53.084;6.960;2022-08-03T12:26:06;31.40;91.10
52387;DHT22;38317;53.084;6.960;2022-08-03T12:28:32;31.30;88.90
52387;DHT22;38317;53.084;6.960;2022-08-03T12:31:06;31.40;86.40
52387;DHT22;38317;53.084;6.960;2022-08-03T12:33:53;31.20;85.50
52387;DHT22;38317;53.084;6.960;2022-08-03T12:36:18;31.20;85.50
52387;DHT22;38317;53.084;6.960;2022-08-03T12:39:03;31.20;86.60
52387;DHT22;38317;53.084;6.960;2022-08-03T12:41:30;31.00;88.60
52387;DHT22;38317;53.084;6.960;2022-08-03T12:43:56;31.20;89.60
52387;DHT22;38317;53.084;6.960;2022-08-03T12:46:37;31.30;90.00
52387;DHT22;38317;53.084;6.960;2022-08-03T12:49:04;31.40;89.40
52387;DHT22;38317;53.084;6.960;2022-08-03T12:51:55;31.50;89.80
52387;DHT22;38317;53.084;6.960;2022-08-03T12:54:26;31.60;87.00
52387;DHT22;38317;53.084;6.960;2022-08-03T12:57:09;31.80;85.10
52387;DHT22;38317;53.084;6.960;2022-08-03T12:59:41;31.70;83.90
52387;DHT22;38317;53.084;6.960;2022-08-03T13:02:24;31.60;84.20
52387;DHT22;38317;53.084;6.960;2022-08-03T13:04:52;31.80;84.10
52387;DHT22;38317;53.084;6.960;2022-08-03T13:07:19;31.80;79.40
52387;DHT22;38317;53.084;6.960;2022-08-03T13:12:21;31.60;80.70
52387;DHT22;38317;53.084;6.960;2022-08-03T13:14:59;31.70;81.80
52387;DHT22;38317;53.084;6.960;2022-08-03T13:17:26;31.70;81.00
52387;DHT22;38317;53.084;6.960;2022-08-03T13:19:52;31.80;82.70
52387;DHT22;38317;53.084;6.960;2022-08-03T13:22:23;31.80;82.80
52387;DHT22;38317;53.084;6.960;2022-08-03T13:24:51;31.80;82.60
52387;DHT22;38317;53.084;6.960;2022-08-03T13:27:17;31.90;81.40
52387;DHT22;38317;53.084;6.960;2022-08-03T13:29:43;31.80;79.20
52387;DHT22;38317;53.084;6.960;2022-08-03T13:32:09;31.80;79.20
52387;DHT22;38317;53.084;6.960;2022-08-03T13:34:36;31.80;78.60
52387;DHT22;38317;53.084;6.960;2022-08-03T13:37:02;31.70;79.00
52387;DHT22;38317;53.084;6.960;2022-08-03T13:39:28;31.80;77.50
52387;DHT22;38317;53.084;6.960;2022-08-03T13:41:53;31.80;75.50
52387;DHT22;38317;53.084;6.960;2022-08-03T13:44:19;31.90;75.10
52387;DHT22;38317;53.084;6.960;2022-08-03T13:46:46;32.00;73.80
52387;DHT22;38317;53.084;6.960;2022-08-03T13:49:11;32.00;73.50
52387;DHT22;38317;53.084;6.960;2022-08-03T13:51:37;32.00;69.10
52387;DHT22;38317;53.084;6.960;2022-08-03T13:54:03;31.80;70.50
52387;DHT22;38317;53.084;6.960;2022-08-03T13:56:30;31.80;70.30
52387;DHT22;38317;53.084;6.960;2022-08-03T13:58:56;31.60;68.20
52387;DHT22;38317;53.084;6.960;2022-08-03T14:01:22;31.60;66.40
52387;DHT22;38317;53.084;6.960;2022-08-03T14:03:49;31.40;66.50
52387;DHT22;38317;53.084;6.960;2022-08-03T14:06:20;31.30;67.20
52387;DHT22;38317;53.084;6.960;2022-08-03T14:08:47;31.30;67.70
52387;DHT22;38317;53.084;6.960;2022-08-03T14:11:14;31.30;68.70
52387;DHT22;38317;53.084;6.960;2022-08-03T14:13:40;31.30;67.60
52387;DHT22;38317;53.084;6.960;2022-08-03T14:16:06;31.20;68.10
52387;DHT22;38317;53.084;6.960;2022-08-03T14:18:32;31.20;68.00
52387;DHT22;38317;53.084;6.960;2022-08-03T14:20:58;31.10;67.50
52387;DHT22;38317;53.084;6.960;2022-08-03T14:23:24;31.00;68.30
52387;DHT22;38317;53.084;6.960;2022-08-03T14:25:50;31.00;68.50
52387;DHT22;38317;53.084;6.960;2022-08-03T14:28:17;30.90;69.00
52387;DHT22;38317;53.084;6.960;2022-08-03T14:30:43;31.00;69.80
52387;DHT22;38317;53.084;6.960;2022-08-03T14:33:09;31.00;70.20
52387;DHT22;38317;53.084;6.960;2022-08-03T14:35:34;31.00;70.30
52387;DHT22;38317;53.084;6.960;2022-08-03T14:38:00;31.00;71.00
52387;DHT22;38317;53.084;6.960;2022-08-03T14:40:26;30.90;71.40
52387;DHT22;38317;53.084;6.960;2022-08-03T14:42:51;30.90;70.80
52387;DHT22;38317;53.084;6.960;2022-08-03T14:45:17;30.70;71.60
52387;DHT22;38317;53.084;6.960;2022-08-03T14:47:43;30.60;72.10
52387;DHT22;38317;53.084;6.960;2022-08-03T14:50:09;30.60;72.20
52387;DHT22;38317;53.084;6.960;2022-08-03T14:52:35;30.60;73.20
52387;DHT22;38317;53.084;6.960;2022-08-03T14:55:00;30.60;73.50
52387;DHT22;38317;53.084;6.960;2022-08-03T14:57:26;30.70;71.40
52387;DHT22;38317;53.084;6.960;2022-08-03T14:59:52;30.80;73.70
52387;DHT22;38317;53.084;6.960;2022-08-03T15:02:18;31.00;72.90
52387;DHT22;38317;53.084;6.960;2022-08-03T15:04:44;31.10;73.10
52387;DHT22;38317;53.084;6.960;2022-08-03T15:07:10;31.20;73.00
52387;DHT22;38317;53.084;6.960;2022-08-03T15:09:37;31.20;73.80
52387;DHT22;38317;53.084;6.960;2022-08-03T15:12:04;31.20;73.90
52387;DHT22;38317;53.084;6.960;2022-08-03T15:14:31;31.30;72.70
52387;DHT22;38317;53.084;6.960;2022-08-03T15:16:57;31.30;73.00
52387;DHT22;38317;53.084;6.960;2022-08-03T15:19:23;31.30;72.20
52387;DHT22;38317;53.084;6.960;2022-08-03T15:21:48;31.30;71.80
52387;DHT22;38317;53.084;6.960;2022-08-03T15:24:14;31.20;72.40
52387;DHT22;38317;53.084;6.960;2022-08-03T15:26:40;31.20;72.70
52387;DHT22;38317;53.084;6.960;2022-08-03T15:29:06;31.20;71.50
52387;DHT22;38317;53.084;6.960;2022-08-03T15:31:33;31.10;71.60
52387;DHT22;38317;53.084;6.960;2022-08-03T15:33:59;31.10;72.40
52387;DHT22;38317;53.084;6.960;2022-08-03T15:36:25;31.00;72.90
52387;DHT22;38317;53.084;6.960;2022-08-03T15:38:51;30.90;73.40
52387;DHT22;38317;53.084;6.960;2022-08-03T15:41:17;30.90;72.50
52387;DHT22;38317;53.084;6.960;2022-08-03T15:43:44;30.90;72.90
52387;DHT22;38317;53.084;6.960;2022-08-03T15:46:11;30.90;72.30
52387;DHT22;38317;53.084;6.960;2022-08-03T15:48:39;30.90;72.00
52387;DHT22;38317;53.084;6.960;2022-08-03T15:51:05;31.00;71.00
52387;DHT22;38317;53.084;6.960;2022-08-03T15:53:31;30.90;71.70
52387;DHT22;38317;53.084;6.960;2022-08-03T15:55:58;31.00;70.20
52387;DHT22;38317;53.084;6.960;2022-08-03T15:58:24;31.00;70.50
52387;DHT22;38317;53.084;6.960;2022-08-03T16:00:56;31.00;69.20
52387;DHT22;38317;53.084;6.960;2022-08-03T16:03:23;31.00;68.30
52387;DHT22;38317;53.084;6.960;2022-08-03T16:05:49;31.00;69.50
52387;DHT22;38317;53.084;6.960;2022-08-03T16:08:15;31.00;70.10
52387;DHT22;38317;53.084;6.960;2022-08-03T16:10:41;31.10;69.60
52387;DHT22;38317;53.084;6.960;2022-08-03T16:13:07;31.10;68.40
52387;DHT22;38317;53.084;6.960;2022-08-03T16:15:34;31.00;68.50
52387;DHT22;38317;53.084;6.960;2022-08-03T16:17:59;31.00;65.80
52387;DHT22;38317;53.084;6.960;2022-08-03T16:20:25;30.90;66.10
52387;DHT22;38317;53.084;6.960;2022-08-03T16:22:51;30.90;67.00
52387;DHT22;38317;53.084;6.960;2022-08-03T16:25:17;30.80;67.60
52387;DHT22;38317;53.084;6.960;2022-08-03T16:27:43;30.70;66.70